Time;durP1;ratioP1;P1;durP2;ratioP2;P2;SDS_P1;SDS_P2;PMS_P1;PMS_P2;Temp;Humidity;BMP_temperature;BMP_pressure;BME280_temperature;BME280_humidity;BME280_pressure;Samples;Min_cycle;Max_cycle;Signal;HPM_P1;HPM_P2
2023/01/01 00:00:11;;;;;;;22.20;15.52;;;2.10;99.90;;;;;;5094823;28;20027;-79
2023/01/01 00:02:37;;;;;;;22.05;14.52;;;2.10;99.90;;;;;;5094832;28;20047;-80
2023/01/01 00:05:04;;;;;;;17.88;11.85;;;2.10;99.90;;;;;;5094661;28;20020;-80
2023/01/01 00:07:30;;;;;;;22.65;14.95;;;2.10;99.90;;;;;;5096542;28;20032;-81
2023/01/01 00:12:40;;;;;;;19.13;13.00;;;2.20;99.90;;;;;;5094891;28;20089;-81
2023/01/01 00:15:06;;;;;;;24.05;11.57;;;2.20;99.90;;;;;;5094780;28;20024;-80
2023/01/01 00:17:32;;;;;;;16.13;8.93;;;2.20;99.90;;;;;;5080232;28;20016;-79
2023/01/01 00:19:58;;;;;;;14.02;8.75;;;2.20;99.90;;;;;;5094271;28;20028;-80
2023/01/01 00:22:25;;;;;;;17.30;9.85;;;2.20;99.90;;;;;;5092677;28;20024;-81
2023/01/01 00:24:51;;;;;;;18.60;10.83;;;2.10;99.90;;;;;;5094214;28;20024;-80
2023/01/01 00:27:17;;;;;;;9.60;6.47;;;2.10;99.90;;;;;;5093651;28;20055;-80
2023/01/01 00:29:43;;;;;;;18.30;12.45;;;2.10;99.90;;;;;;5094382;28;20068;-81
2023/01/01 00:32:11;;;;;;;14.60;9.52;;;2.00;99.90;;;;;;5100380;28;20015;-80
2023/01/01 00:34:37;;;;;;;17.92;10.20;;;2.00;99.90;;;;;;5116752;28;20027;-80
2023/01/01 00:37:02;;;;;;;15.00;9.48;;;2.00;99.90;;;;;;5118851;28;20128;-80
2023/01/01 00:39:32;;;;;;;17.25;10.18;;;2.10;99.90;;;;;;5114949;28;20049;-80
2023/01/01 00:41:58;;;;;;;17.33;10.15;;;2.00;99.90;;;;;;5112960;28;20494;-81
2023/01/01 00:44:24;;;;;;;17.98;10.48;;;2.00;99.90;;;;;;5095285;28;20078;-81
2023/01/01 00:46:49;;;;;;;17.40;9.27;;;2.00;99.90;;;;;;5103867;28;20043;-79
2023/01/01 00:49:15;;;;;;;18.10;9.27;;;2.00;99.90;;;;;;5114345;28;20051;-79
2023/01/01 00:51:41;;;;;;;14.13;9.00;;;2.00;99.90;;;;;;5089202;28;20037;-80
2023/01/01 00:54:07;;;;;;;17.45;10.95;;;2.00;99.90;;;;;;5119455;28;20026;-79
2023/01/01 00:56:34;;;;;;;11.85;9.07;;;1.90;99.90;;;;;;5123926;28;20079;-81
2023/01/01 00:58:59;;;;;;;15.68;8.30;;;1.90;99.90;;;;;;5106468;28;20074;-81
2023/01/01 01:01:25;;;;;;;12.90;9.05;;;1.90;99.90;;;;;;5112377;28;20480;-81
2023/01/01 01:03:51;;;;;;;13.02;8.60;;;1.90;99.90;;;;;;5113452;28;20020;-80
2023/01/01 01:06:17;;;;;;;16.23;10.73;;;1.90;99.90;;;;;;5113536;28;20028;-80
2023/01/01 01:08:45;;;;;;;13.77;9.50;;;1.90;99.90;;;;;;5113592;28;20106;-80
2023/01/01 01:11:17;;;;;;;11.55;7.28;;;1.90;99.90;;;;;;5103350;28;20028;-79
2023/01/01 01:13:45;;;;;;;12.32;8.13;;;2.00;99.90;;;;;;5092945;28;20500;-79
2023/01/01 01:16:26;;;;;;;10.13;7.95;;;1.90;99.90;;;;;;5093047;28;20034;-80
2023/01/01 01:18:54;;;;;;;8.95;7.10;;;2.00;99.90;;;;;;5093121;28;20016;-79
2023/01/01 01:21:22;;;;;;;11.45;7.35;;;2.00;99.90;;;;;;5093295;28;20035;-79
2023/01/01 01:23:47;;;;;;;;;;;1.90;99.90;;;;;;5093524;28;20020;-80
2023/01/01 01:26:22;;;;;;;9.15;6.93;;;2.00;99.90;;;;;;5092911;28;20532;-79
2023/01/01 01:28:48;;;;;;;10.38;5.65;;;2.00;99.90;;;;;;5092807;28;20031;-79
2023/01/01 01:31:14;;;;;;;11.57;7.35;;;2.00;99.90;;;;;;5092831;28;20023;-81
2023/01/01 01:33:43;;;;;;;11.52;7.05;;;1.90;99.90;;;;;;5092487;28;20023;-80
2023/01/01 01:36:09;;;;;;;7.18;5.75;;;1.90;99.90;;;;;;5092527;28;20024;-80
2023/01/01 01:38:35;;;;;;;10.27;5.80;;;1.90;99.90;;;;;;5093169;28;20020;-79
2023/01/01 01:41:01;;;;;;;7.88;6.90;;;1.90;99.90;;;;;;5092656;28;20483;-80
2023/01/01 01:43:32;;;;;;;10.10;5.97;;;1.90;99.90;;;;;;5092573;28;20024;-80
2023/01/01 01:46:04;;;;;;;11.07;7.10;;;1.90;99.90;;;;;;5092480;28;20021;-80
2023/01/01 01:48:36;;;;;;;8.10;6.20;;;1.90;99.90;;;;;;5092245;28;20044;-80
2023/01/01 01:51:02;;;;;;;8.27;5.60;;;1.90;99.90;;;;;;5092319;28;20085;-79
2023/01/01 01:53:31;;;;;;;6.88;5.82;;;2.00;99.90;;;;;;5092456;28;20366;-80
2023/01/01 01:56:00;;;;;;;9.38;6.60;;;2.00;99.90;;;;;;5092415;28;20016;-80
2023/01/01 01:58:29;;;;;;;8.45;6.20;;;2.00;99.90;;;;;;5088508;28;20022;-81
2023/01/01 02:00:55;;;;;;;8.02;6.53;;;2.00;99.90;;;;;;5090848;28;20024;-79
2023/01/01 02:03:46;;;;;;;9.48;6.85;;;2.00;99.90;;;;;;5092295;28;20020;-80
2023/01/01 02:06:12;;;;;;;7.15;5.93;;;2.10;99.90;;;;;;5094367;28;20031;-79
2023/01/01 02:08:38;;;;;;;10.18;5.82;;;2.10;99.90;;;;;;5094118;28;20086;-79
2023/01/01 02:11:04;;;;;;;8.15;5.35;;;2.10;99.90;;;;;;5092009;28;20055;-80
2023/01/01 02:13:30;;;;;;;7.18;6.22;;;2.10;99.90;;;;;;5092154;28;20020;-79
2023/01/01 02:16:30;;;;;;;8.05;5.18;;;2.20;99.90;;;;;;5092126;28;20020;-80
2023/01/01 02:19:09;;;;;;;6.75;5.30;;;2.20;99.90;;;;;;5080343;28;20032;-81
2023/01/01 02:21:56;;;;;;;6.03;4.88;;;2.20;99.90;;;;;;5091951;28;20115;-80
2023/01/01 02:24:59;;;;;;;7.60;5.53;;;2.30;99.90;;;;;;5091963;28;20448;-79
2023/01/01 02:28:14;;;;;;;7.90;5.57;;;2.30;99.90;;;;;;5081073;28;20036;-80
2023/01/01 02:30:45;;;;;;;11.68;5.50;;;2.30;99.90;;;;;;5009904;28;20096;-79
2023/01/01 02:33:17;;;;;;;9.10;5.53;;;2.30;99.90;;;;;;5009693;28;20018;-79
2023/01/01 02:35:50;;;;;;;8.90;5.63;;;2.30;99.90;;;;;;5009793;28;20029;-79
2023/01/01 02:38:26;;;;;;;8.48;5.70;;;2.40;99.90;;;;;;5009659;28;20511;-80
2023/01/01 02:40:59;;;;;;;8.77;5.75;;;2.30;99.90;;;;;;5013376;28;20494;-80
2023/01/01 02:43:25;;;;;;;6.75;5.53;;;2.30;99.90;;;;;;5025124;28;20061;-79
2023/01/01 02:45:53;;;;;;;7.22;5.32;;;2.30;99.90;;;;;;5012787;28;20068;-80
2023/01/01 02:48:49;;;;;;;7.10;5.70;;;2.30;99.90;;;;;;5029520;28;20408;-80
2023/01/01 02:51:33;;;;;;;5.93;4.57;;;2.30;99.90;;;;;;5029646;28;20421;-80
2023/01/01 02:54:11;;;;;;;8.20;6.60;;;2.40;99.90;;;;;;5013153;28;20787;-79
2023/01/01 02:56:50;;;;;;;7.80;5.22;;;2.40;99.90;;;;;;5029342;28;20162;-79
2023/01/01 03:02:03;;;;;;;;;;;2.40;99.90;;;;;;5079250;28;20499;-79
2023/01/01 03:04:41;;;;;;;8.30;5.82;;;2.50;99.90;;;;;;5111933;28;19907;-80
2023/01/01 03:07:16;;;;;;;7.38;6.07;;;2.50;99.90;;;;;;5111943;28;20024;-79
2023/01/01 03:09:46;;;;;;;7.75;5.55;;;2.50;99.90;;;;;;5111969;28;20046;-80
2023/01/01 03:12:38;;;;;;;7.97;6.00;;;2.50;99.90;;;;;;5110774;28;20024;-79
2023/01/01 03:15:31;;;;;;;7.60;5.90;;;2.60;99.90;;;;;;5111744;28;20022;-80
2023/01/01 03:18:01;;;;;;;9.05;6.07;;;2.60;99.90;;;;;;5070205;28;20032;-80
2023/01/01 03:20:32;;;;;;;8.27;6.10;;;2.70;99.90;;;;;;5099633;28;20026;-80
2023/01/01 03:23:02;;;;;;;8.23;5.68;;;2.70;99.90;;;;;;5116002;28;20104;-79
2023/01/01 03:26:06;;;;;;;9.13;5.70;;;2.70;99.90;;;;;;5115674;27;20020;-80
2023/01/01 03:29:09;;;;;;;7.05;6.28;;;2.70;99.90;;;;;;5115808;28;20532;-79
2023/01/01 03:32:13;;;;;;;8.60;6.10;;;2.70;99.90;;;;;;5115990;28;20027;-78
2023/01/01 03:35:16;;;;;;;7.97;5.88;;;2.70;99.90;;;;;;5097598;28;20020;-79
2023/01/01 03:38:19;;;;;;;9.25;6.05;;;2.70;99.90;;;;;;5093838;28;20023;-81
2023/01/01 03:41:22;;;;;;;8.10;5.95;;;2.70;99.90;;;;;;5112874;28;20051;-79
2023/01/01 03:44:25;;;;;;;9.55;5.70;;;2.70;99.90;;;;;;5094302;28;20026;-79
2023/01/01 03:47:10;;;;;;;10.60;5.90;;;2.70;99.90;;;;;;5094891;28;20068;-79
2023/01/01 03:49:54;;;;;;;9.20;6.38;;;2.70;99.90;;;;;;5094854;28;20095;-79
2023/01/01 03:52:58;;;;;;;8.05;6.90;;;2.70;99.90;;;;;;5094674;28;20473;-79
2023/01/01 03:55:47;;;;;;;8.93;6.05;;;2.70;99.90;;;;;;5094782;28;20389;-79
2023/01/01 03:58:50;;;;;;;10.82;6.78;;;2.70;99.90;;;;;;5094781;28;20496;-80
2023/01/01 04:01:40;;;;;;;8.65;6.68;;;2.70;99.90;;;;;;5082031;28;20016;-81
2023/01/01 04:04:25;;;;;;;8.07;6.15;;;2.70;99.90;;;;;;5094464;28;20027;-79
2023/01/01 04:07:29;;;;;;;11.15;6.40;;;2.70;99.90;;;;;;5094449;28;20028;-79
2023/01/01 04:10:32;;;;;;;11.63;7.47;;;2.70;99.90;;;;;;5083146;28;20381;-79
2023/01/01 04:13:01;;;;;;;10.35;6.38;;;2.80;99.90;;;;;;5094378;28;20024;-80
2023/01/01 04:16:04;;;;;;;9.07;6.35;;;2.80;99.90;;;;;;5093227;28;20035;-79
2023/01/01 04:19:08;;;;;;;8.02;6.38;;;2.70;99.90;;;;;;5083719;28;20012;-80
2023/01/01 04:21:33;;;;;;;11.60;7.28;;;2.70;99.90;;;;;;5080862;28;20016;-79
2023/01/01 04:24:19;;;;;;;10.75;6.90;;;2.70;99.90;;;;;;5094504;28;20398;-79
2023/01/01 04:27:22;;;;;;;10.45;7.30;;;2.70;99.90;;;;;;5081513;28;20051;-79
2023/01/01 04:30:25;;;;;;;10.35;7.18;;;2.80;99.90;;;;;;5102755;28;20047;-79
2023/01/01 04:33:29;;;;;;;9.18;6.85;;;2.70;99.90;;;;;;5093635;28;20429;-80
2023/01/01 04:36:32;;;;;;;11.73;7.53;;;2.70;99.90;;;;;;5094171;28;20072;-80
2023/01/01 04:39:35;;;;;;;9.57;6.93;;;2.70;99.90;;;;;;5094056;28;20024;-80
2023/01/01 04:42:38;;;;;;;10.07;7.05;;;2.70;99.90;;;;;;5090830;28;20511;-79
2023/01/01 04:45:41;;;;;;;9.15;6.75;;;2.70;99.90;;;;;;5094542;28;20362;-82
2023/01/01 04:48:25;;;;;;;9.65;6.88;;;2.70;99.90;;;;;;5085175;28;20480;-79
2023/01/01 04:51:28;;;;;;;10.95;6.75;;;2.70;99.90;;;;;;5093710;28;20031;-79
2023/01/01 04:54:32;;;;;;;10.40;6.88;;;2.60;99.90;;;;;;5093681;28;20020;-79
2023/01/01 04:57:35;;;;;;;12.85;7.38;;;2.70;99.90;;;;;;5094222;28;20016;-81
2023/01/01 05:00:21;;;;;;;9.05;6.43;;;2.60;99.90;;;;;;5107407;28;20535;-79
2023/01/01 05:03:06;;;;;;;10.90;7.65;;;2.70;99.90;;;;;;5081788;28;20020;-78
2023/01/01 05:05:50;;;;;;;8.45;6.97;;;2.80;99.90;;;;;;5082319;28;20033;-80
2023/01/01 05:08:54;;;;;;;9.48;7.50;;;2.80;99.90;;;;;;5103422;28;20418;-79
2023/01/01 05:11:57;;;;;;;8.18;7.18;;;2.80;99.90;;;;;;5097468;28;20032;-79
2023/01/01 05:14:41;;;;;;;9.20;7.22;;;2.90;99.90;;;;;;5113758;28;20051;-80
2023/01/01 05:17:44;;;;;;;9.15;6.40;;;3.00;99.90;;;;;;5101849;28;20133;-79
2023/01/01 05:20:29;;;;;;;8.40;6.45;;;3.00;99.90;;;;;;5112247;28;20030;-78
2023/01/01 05:23:32;;;;;;;8.70;5.65;;;2.90;99.90;;;;;;5112091;28;20028;-79
2023/01/01 05:26:17;;;;;;;8.57;6.38;;;2.90;99.90;;;;;;5113305;28;20132;-82
2023/01/01 05:29:23;;;;;;;7.43;6.13;;;2.90;99.90;;;;;;5112221;28;20520;-81
2023/01/01 05:32:07;;;;;;;10.35;6.55;;;2.90;99.90;;;;;;5080680;28;20119;-79
2023/01/01 05:34:52;;;;;;;7.45;5.45;;;2.90;99.90;;;;;;5110808;28;20012;-80
2023/01/01 05:37:36;;;;;;;11.02;6.90;;;2.90;99.90;;;;;;5111790;28;20030;-81
2023/01/01 05:40:39;;;;;;;7.78;6.15;;;2.90;99.90;;;;;;5072923;28;20059;-79
2023/01/01 05:43:23;;;;;;;8.77;6.43;;;2.90;99.90;;;;;;5092193;28;20511;-79
2023/01/01 05:45:59;;;;;;;7.63;6.32;;;3.00;99.90;;;;;;5077328;28;20051;-78
2023/01/01 05:48:44;;;;;;;8.27;6.47;;;3.00;99.90;;;;;;5092836;28;20032;-80
2023/01/01 05:51:47;;;;;;;8.73;6.70;;;3.00;99.90;;;;;;5079000;28;20024;-80
2023/01/01 05:54:50;;;;;;;9.82;7.85;;;3.10;99.90;;;;;;5092293;28;20020;-79
2023/01/01 05:57:34;;;;;;;6.97;5.25;;;3.00;99.90;;;;;;5091055;28;20025;-79
2023/01/01 06:00:18;;;;;;;6.88;6.18;;;2.90;99.90;;;;;;5092487;28;20103;-80
2023/01/01 06:03:22;;;;;;;8.55;6.45;;;2.90;99.90;;;;;;5092200;28;20154;-80
2023/01/01 06:06:06;;;;;;;10.63;6.20;;;2.90;99.90;;;;;;5092099;28;20020;-79
2023/01/01 06:09:10;;;;;;;8.35;6.07;;;2.90;99.90;;;;;;5092553;28;20027;-81
2023/01/01 06:11:54;;;;;;;8.20;6.13;;;2.80;99.90;;;;;;5092524;28;20103;-80
2023/01/01 06:14:57;;;;;;;8.75;6.78;;;2.80;99.90;;;;;;5092359;28;20028;-80
2023/01/01 06:18:00;;;;;;;6.93;5.85;;;2.80;99.90;;;;;;5100060;28;20024;-80
2023/01/01 06:21:03;;;;;;;9.10;6.85;;;2.80;99.90;;;;;;5083271;28;20099;-80
2023/01/01 06:24:07;;;;;;;8.13;5.07;;;2.80;99.90;;;;;;5080141;28;20028;-80
2023/01/01 06:26:33;;;;;;;7.03;5.93;;;2.80;99.90;;;;;;5091678;28;20036;-79
2023/01/01 06:29:36;;;;;;;6.80;5.60;;;2.80;99.90;;;;;;5090866;28;20028;-79
2023/01/01 06:32:39;;;;;;;5.70;5.07;;;2.80;99.90;;;;;;5080567;28;20039;-79
2023/01/01 06:35:42;;;;;;;6.68;5.25;;;2.90;99.90;;;;;;5092151;28;20031;-79
2023/01/01 06:38:45;;;;;;;7.20;5.60;;;2.90;99.90;;;;;;5091511;28;20126;-80
2023/01/01 06:41:30;;;;;;;8.10;5.60;;;2.90;99.90;;;;;;5092820;28;20024;-79
2023/01/01 06:44:15;;;;;;;6.10;5.22;;;2.90;99.90;;;;;;5096591;28;20085;-79
2023/01/01 06:46:59;;;;;;;6.20;5.30;;;2.90;99.90;;;;;;5091809;28;20024;-81
2023/01/01 06:49:44;;;;;;;7.25;5.32;;;3.00;99.90;;;;;;5079682;28;20019;-79
2023/01/01 06:52:47;;;;;;;4.88;4.40;;;3.10;99.90;;;;;;5089481;28;20032;-80
2023/01/01 06:55:50;;;;;;;7.18;5.50;;;3.10;99.90;;;;;;5086697;28;20050;-81
2023/01/01 06:58:34;;;;;;;6.75;4.82;;;3.10;99.90;;;;;;5086400;28;20073;-80
2023/01/01 07:01:41;;;;;;;6.55;4.68;;;3.10;99.90;;;;;;5095814;28;20017;-79
2023/01/01 07:04:44;;;;;;;5.28;4.05;;;3.10;99.90;;;;;;5095899;28;20047;-79
2023/01/01 07:07:47;;;;;;;5.18;4.45;;;3.10;99.90;;;;;;5095969;28;20031;-79
2023/01/01 07:10:31;;;;;;;7.07;5.28;;;3.20;99.90;;;;;;5082875;28;20021;-81
2023/01/01 07:13:35;;;;;;;8.30;5.43;;;3.20;99.90;;;;;;5100086;28;20043;-80
2023/01/01 07:16:38;;;;;;;7.22;4.63;;;3.30;99.90;;;;;;5112093;28;20020;-80
2023/01/01 07:19:41;;;;;;;5.82;4.47;;;3.30;99.90;;;;;;5116319;28;20105;-81
2023/01/01 07:22:10;;;;;;;7.47;4.93;;;3.30;99.90;;;;;;5084254;28;20560;-79
2023/01/01 07:25:13;;;;;;;6.32;4.40;;;3.20;99.90;;;;;;5112700;28;20476;-80
2023/01/01 07:28:16;;;;;;;6.70;4.47;;;3.20;99.90;;;;;;5115716;28;20108;-80
2023/01/01 07:31:00;;;;;;;6.47;4.45;;;3.30;99.90;;;;;;5086179;28;20047;-81
2023/01/01 07:33:26;;;;;;;4.88;4.20;;;3.30;99.90;;;;;;5114821;28;20016;-81
2023/01/01 07:36:29;;;;;;;10.93;4.93;;;3.40;99.90;;;;;;5115852;28;20388;-79
2023/01/01 07:39:32;;;;;;;6.05;4.72;;;3.60;99.90;;;;;;5092036;28;20023;-80
2023/01/01 07:42:35;;;;;;;6.20;5.13;;;3.70;99.90;;;;;;5099104;28;20069;-80
2023/01/01 07:45:23;;;;;;;5.57;4.68;;;3.60;99.90;;;;;;5095767;28;20481;-79
2023/01/01 07:48:07;;;;;;;;;;;3.70;99.90;;;;;;5084593;28;20036;-80
2023/01/01 07:51:10;;;;;;;6.28;4.60;;;3.60;99.90;;;;;;5096053;28;19935;-81
2023/01/01 07:54:13;;;;;;;6.40;5.20;;;3.60;99.90;;;;;;5093773;28;20370;-80
2023/01/01 07:57:16;;;;;;;6.18;4.75;;;3.70;99.90;;;;;;5095202;28;20050;-82
2023/01/01 07:59:42;;;;;;;9.60;5.72;;;3.70;99.90;;;;;;5091424;28;20020;-80
2023/01/01 08:02:45;;;;;;;5.95;4.38;;;3.70;99.90;;;;;;5097210;28;20020;-79
2023/01/01 08:05:48;;;;;;;7.30;5.82;;;3.70;99.90;;;;;;5101809;28;20020;-80
2023/01/01 08:08:33;;;;;;;7.88;6.30;;;3.80;99.90;;;;;;5083922;28;20170;-79
2023/01/01 08:11:36;;;;;;;6.20;5.15;;;3.80;99.90;;;;;;5094648;28;20095;-80
2023/01/01 08:14:20;;;;;;;6.32;5.05;;;3.90;99.90;;;;;;5082585;28;20028;-79
2023/01/01 08:17:23;;;;;;;6.50;4.80;;;3.80;99.90;;;;;;5100097;28;20020;-82
2023/01/01 08:20:08;;;;;;;6.80;5.45;;;3.80;99.90;;;;;;5080398;28;20028;-81
2023/01/01 08:22:53;;;;;;;6.40;5.60;;;3.80;99.90;;;;;;5093011;28;20020;-81
2023/01/01 08:25:37;;;;;;;8.05;6.13;;;3.90;99.90;;;;;;5094315;28;20031;-81
2023/01/01 08:28:41;;;;;;;9.10;5.68;;;4.00;99.90;;;;;;5094231;28;20374;-81
2023/01/01 08:31:25;;;;;;;7.35;5.60;;;4.00;99.90;;;;;;5094252;28;20451;-80
2023/01/01 08:34:28;;;;;;;9.07;5.75;;;4.00;99.90;;;;;;5094502;28;20388;-81
2023/01/01 08:37:31;;;;;;;7.75;5.93;;;4.00;99.90;;;;;;5080688;28;20133;-80
2023/01/01 08:40:35;;;;;;;8.18;6.10;;;4.00;99.90;;;;;;5093955;28;20030;-81
2023/01/01 08:43:38;;;;;;;5.97;4.68;;;4.00;99.90;;;;;;5085019;28;20385;-81
2023/01/01 08:46:41;;;;;;;7.55;6.38;;;4.10;99.90;;;;;;5082115;28;20024;-81
2023/01/01 08:49:44;;;;;;;7.68;5.50;;;4.10;99.90;;;;;;5094013;28;20119;-81
2023/01/01 08:52:47;;;;;;;7.90;5.30;;;4.10;99.90;;;;;;5093706;28;20024;-81
2023/01/01 08:55:50;;;;;;;9.48;7.00;;;4.10;99.90;;;;;;5093822;28;20072;-79
2023/01/01 08:58:35;;;;;;;8.77;6.90;;;4.10;99.90;;;;;;5084010;28;20016;-81
2023/01/01 09:01:25;;;;;;;6.97;5.93;;;4.20;99.90;;;;;;5092200;28;20020;-81
2023/01/01 09:04:27;;;;;;;8.38;6.25;;;4.20;99.90;;;;;;5093415;28;20108;-80
2023/01/01 09:07:12;;;;;;;8.13;6.60;;;4.20;99.90;;;;;;5093660;28;20491;-79
2023/01/01 09:10:15;;;;;;;8.50;5.82;;;4.30;99.90;;;;;;5093261;28;20077;-81
2023/01/01 09:13:00;;;;;;;7.93;6.45;;;;;;;;;;5093586;28;20073;-81
2023/01/01 09:16:03;;;;;;;7.38;6.00;;;4.50;99.90;;;;;;5093412;28;20024;-80
2023/01/01 09:19:09;;;;;;;8.23;6.45;;;4.60;99.90;;;;;;5080469;28;20051;-81
2023/01/01 09:22:13;;;;;;;7.15;6.45;;;4.40;99.90;;;;;;5078232;28;20442;-80
2023/01/01 09:24:57;;;;;;;8.60;6.40;;;4.40;99.90;;;;;;5092959;28;20336;-81
2023/01/01 09:28:00;;;;;;;7.70;6.25;;;4.40;99.90;;;;;;5092822;28;20197;-81
2023/01/01 09:30:45;;;;;;;6.95;6.25;;;4.50;99.90;;;;;;5080982;28;20020;-79
2023/01/01 09:33:48;;;;;;;7.55;6.43;;;4.50;99.90;;;;;;5093219;28;20012;-78
2023/01/01 09:36:51;;;;;;;12.13;7.75;;;4.50;99.90;;;;;;5091463;28;20025;-81
2023/01/01 09:39:54;;;;;;;7.85;6.47;;;4.40;99.90;;;;;;5093059;28;20032;-80
2023/01/01 09:42:57;;;;;;;10.40;7.20;;;4.40;99.90;;;;;;5092461;28;20026;-81
2023/01/01 09:46:00;;;;;;;8.50;6.75;;;4.40;99.90;;;;;;5091959;28;20503;-80
2023/01/01 09:49:04;;;;;;;11.77;7.57;;;4.50;99.90;;;;;;5097996;28;20391;-80
2023/01/01 09:52:07;;;;;;;9.30;6.93;;;4.60;99.90;;;;;;5088029;28;20094;-80
2023/01/01 09:55:10;;;;;;;10.35;7.50;;;4.50;99.90;;;;;;5081920;28;20024;-79
2023/01/01 09:58:13;;;;;;;12.07;7.47;;;4.60;99.90;;;;;;5092352;28;20026;-81
2023/01/01 10:00:43;;;;;;;9.70;6.65;;;4.70;99.90;;;;;;5088529;28;20404;-82
2023/01/01 10:03:27;;;;;;;11.13;7.88;;;4.70;99.90;;;;;;5092390;28;20035;-80
2023/01/01 10:06:30;;;;;;;10.13;7.47;;;4.70;99.90;;;;;;5092882;28;20016;-79
2023/01/01 10:09:34;;;;;;;11.40;8.52;;;4.70;99.90;;;;;;5092234;28;20036;-80
2023/01/01 10:12:37;;;;;;;10.07;7.78;;;4.70;99.90;;;;;;5092564;28;20061;-80
2023/01/01 10:15:40;;;;;;;12.35;8.48;;;4.60;99.90;;;;;;5079348;28;20032;-80
2023/01/01 10:18:43;;;;;;;9.75;6.97;;;4.70;99.90;;;;;;5092100;28;20020;-80
2023/01/01 10:21:36;;;;;;;9.23;7.00;;;4.80;99.90;;;;;;5091871;28;20085;-80
2023/01/01 10:24:39;;;;;;;9.15;6.85;;;4.70;99.90;;;;;;5092034;28;20477;-81
2023/01/01 10:27:05;;;;;;;8.32;6.25;;;4.80;99.90;;;;;;5081758;28;20050;-80
2023/01/01 10:30:09;;;;;;;9.13;6.93;;;4.80;99.90;;;;;;5091377;28;20078;-80
2023/01/01 10:33:11;;;;;;;10.55;6.72;;;4.70;99.90;;;;;;5092325;28;20392;-79
2023/01/01 10:36:15;;;;;;;6.90;5.90;;;4.80;99.90;;;;;;5080511;28;20024;-80
2023/01/01 10:39:18;;;;;;;10.98;6.30;;;4.80;99.90;;;;;;5079326;28;20024;-78
2023/01/01 10:42:21;;;;;;;8.55;6.70;;;4.80;99.90;;;;;;5091816;28;20107;-79
2023/01/01 10:45:24;;;;;;;8.07;5.90;;;4.70;99.90;;;;;;5091873;28;20025;-81
2023/01/01 10:48:27;;;;;;;6.68;5.82;;;4.80;99.90;;;;;;5078847;28;20052;-80
2023/01/01 10:51:30;;;;;;;7.47;5.25;;;4.80;99.90;;;;;;5091437;28;20028;-80
2023/01/01 10:54:15;;;;;;;8.43;5.43;;;4.80;99.90;;;;;;5091826;28;20032;-81
2023/01/01 10:57:18;;;;;;;9.73;6.13;;;4.80;99.90;;;;;;5090291;28;20385;-81
2023/01/01 11:00:21;;;;;;;9.00;5.93;;;4.80;99.90;;;;;;5091693;28;20373;-81
2023/01/01 11:03:27;;;;;;;8.57;5.70;;;4.90;99.90;;;;;;5091784;28;20077;-80
2023/01/01 11:06:23;;;;;;;7.93;5.67;;;4.90;99.90;;;;;;5091712;28;20465;-79
2023/01/01 11:09:26;;;;;;;8.10;5.78;;;4.90;99.90;;;;;;5083775;28;20660;-80
2023/01/01 11:12:29;;;;;;;9.18;6.68;;;5.00;99.90;;;;;;5082397;28;20032;-79
2023/01/01 11:15:32;;;;;;;8.27;6.13;;;4.90;99.90;;;;;;5079224;28;20095;-80
2023/01/01 11:18:35;;;;;;;9.48;4.63;;;4.80;99.90;;;;;;5091603;28;20043;-79
2023/01/01 11:21:03;;;;;;;7.38;4.22;;;4.90;99.90;;;;;;5093312;28;20067;-80
2023/01/01 11:23:48;;;;;;;6.88;5.43;;;;;;;;;;5094224;28;20016;-81
2023/01/01 11:26:33;;;;;;;6.00;4.90;;;;;;;;;;5091810;28;20051;-80
2023/01/01 11:29:36;;;;;;;6.20;5.28;;;4.90;99.90;;;;;;5091405;28;20393;-80
2023/01/01 11:32:39;;;;;;;5.93;4.50;;;5.00;99.90;;;;;;5080117;28;20020;-79
2023/01/01 11:35:25;;;;;;;5.47;4.80;;;5.10;99.90;;;;;;5091700;28;20381;-80
2023/01/01 11:38:28;;;;;;;9.23;5.80;;;4.90;99.90;;;;;;5092079;28;20035;-80
2023/01/01 11:41:13;;;;;;;6.70;5.20;;;5.00;99.90;;;;;;5097215;28;20024;-79
2023/01/01 11:43:57;;;;;;;7.78;5.20;;;5.00;99.90;;;;;;5096841;28;20047;-81
2023/01/01 11:47:01;;;;;;;5.22;4.25;;;5.00;99.90;;;;;;5095141;28;20016;-79
2023/01/01 11:49:28;;;;;;;6.63;5.15;;;4.90;99.90;;;;;;5082523;28;20024;-80
2023/01/01 11:52:35;;;;;;;10.63;6.40;;;4.90;99.90;;;;;;5094904;28;20023;-79
2023/01/01 11:55:29;;;;;;;5.38;4.32;;;4.90;99.90;;;;;;5095097;28;20380;-79
2023/01/01 11:58:17;;;;;;;7.53;5.53;;;5.00;99.90;;;;;;5082388;28;20354;-80
2023/01/01 12:01:01;;;;;;;;;;;5.10;99.90;;;;;;5095133;28;20511;-79
2023/01/01 12:03:52;;;;;;;6.15;4.38;;;4.90;99.90;;;;;;5095022;28;19908;-81
2023/01/01 12:06:56;;;;;;;6.30;4.22;;;5.00;99.90;;;;;;5101012;28;20094;-80
2023/01/01 12:09:42;;;;;;;6.68;3.92;;;4.90;99.90;;;;;;5094706;28;20028;-79
2023/01/01 12:12:45;;;;;;;6.63;5.38;;;4.90;99.90;;;;;;5094511;28;20024;-79
2023/01/01 12:15:49;;;;;;;5.75;4.57;;;5.10;99.90;;;;;;5083049;28;20488;-79
2023/01/01 12:18:40;;;;;;;8.35;4.90;;;5.00;99.90;;;;;;5082282;28;20020;-80
2023/01/01 12:21:18;;;;;;;5.75;3.67;;;5.00;99.90;;;;;;5094755;28;20381;-80
2023/01/01 12:24:03;;;;;;;;;;;4.80;99.90;;;;;;5095066;28;20075;-81
2023/01/01 12:27:06;;;;;;;7.45;4.45;;;5.00;99.90;;;;;;5094445;28;19920;-80
2023/01/01 12:30:09;;;;;;;13.15;5.15;;;5.00;99.90;;;;;;5094395;28;20476;-79
2023/01/01 12:32:53;;;;;;;6.57;4.57;;;5.00;99.90;;;;;;5094879;28;20027;-80
2023/01/01 12:35:50;;;;;;;5.93;4.32;;;5.10;99.90;;;;;;5081741;28;20516;-80
2023/01/01 12:38:53;;;;;;;6.95;4.72;;;5.10;99.90;;;;;;5092660;28;20024;-79
2023/01/01 12:41:56;;;;;;;5.57;4.80;;;5.00;99.90;;;;;;5093902;28;20122;-81
2023/01/01 12:44:58;;;;;;;4.60;3.30;;;5.10;99.90;;;;;;5082092;28;20033;-79
2023/01/01 12:48:01;;;;;;;6.15;3.95;;;5.10;99.90;;;;;;5093817;28;20035;-80
2023/01/01 12:51:04;;;;;;;5.45;3.65;;;5.10;99.90;;;;;;5093963;28;20024;-79
2023/01/01 12:54:07;;;;;;;5.50;4.40;;;5.10;99.90;;;;;;5094264;28;20024;-81
2023/01/01 12:57:10;;;;;;;6.53;4.20;;;5.10;99.90;;;;;;5087246;28;20099;-80
2023/01/01 13:00:13;;;;;;;6.32;4.95;;;5.00;99.90;;;;;;5089143;28;20020;-80
2023/01/01 13:03:17;;;;;;;6.90;4.68;;;5.00;99.90;;;;;;5095694;28;20039;-81
2023/01/01 13:06:20;;;;;;;5.65;4.63;;;5.00;99.90;;;;;;5094157;28;20035;-80
2023/01/01 13:09:07;;;;;;;4.47;3.85;;;5.20;99.90;;;;;;5093619;28;20485;-80
2023/01/01 13:12:10;;;;;;;6.20;4.38;;;5.30;99.90;;;;;;5080522;28;20019;-80
2023/01/01 13:15:13;;;;;;;9.68;4.43;;;5.30;99.90;;;;;;5092216;28;20067;-79
2023/01/01 13:17:57;;;;;;;5.05;4.07;;;5.20;99.90;;;;;;5093582;28;20437;-80
2023/01/01 13:20:42;;;;;;;5.68;4.30;;;5.30;99.90;;;;;;5093686;28;20016;-80
2023/01/01 13:23:45;;;;;;;5.47;4.35;;;5.10;99.90;;;;;;5093792;28;20531;-80
2023/01/01 13:26:30;;;;;;;6.47;3.50;;;5.20;99.90;;;;;;5094314;28;20048;-81
2023/01/01 13:29:33;;;;;;;6.07;4.85;;;5.30;99.90;;;;;;5100871;28;20058;-81
2023/01/01 13:32:36;;;;;;;4.03;3.10;;;5.30;99.90;;;;;;5080969;28;20032;-80
2023/01/01 13:35:39;;;;;;;5.35;3.92;;;5.10;99.90;;;;;;5093065;28;20030;-79
2023/01/01 13:38:42;;;;;;;4.60;3.45;;;5.20;99.90;;;;;;5091598;28;20020;-78
2023/01/01 13:41:45;;;;;;;6.18;4.15;;;5.00;99.90;;;;;;5093020;28;20183;-79
2023/01/01 13:44:30;;;;;;;5.35;4.15;;;;;;;;;;5079584;28;20052;-79
2023/01/01 13:47:33;;;;;;;4.78;3.47;;;5.10;99.90;;;;;;5092755;28;20028;-82
2023/01/01 13:50:28;;;;;;;5.78;3.70;;;5.10;99.90;;;;;;5092993;28;20526;-81
2023/01/01 13:53:15;;;;;;;7.78;3.67;;;5.10;99.90;;;;;;5086221;28;20562;-80
2023/01/01 13:56:18;;;;;;;4.93;3.50;;;5.10;99.90;;;;;;5092493;28;20022;-79
2023/01/01 13:59:20;;;;;;;9.30;5.93;;;5.30;99.90;;;;;;5092484;28;20048;-80
2023/01/01 14:02:31;;;;;;;10.55;6.03;;;5.40;99.90;;;;;;5093271;28;20024;-80
2023/01/01 14:05:23;;;;;;;5.57;4.30;;;5.30;99.90;;;;;;5078097;28;20028;-79
2023/01/01 14:08:25;;;;;;;6.20;4.22;;;5.20;99.90;;;;;;5092180;28;20081;-80
2023/01/01 14:11:28;;;;;;;5.43;4.55;;;5.30;99.90;;;;;;5092358;28;20052;-80
2023/01/01 14:14:14;;;;;;;6.95;4.10;;;;;;;;;;5092501;28;20028;-81
2023/01/01 14:17:17;;;;;;;5.55;3.55;;;5.10;99.90;;;;;;5080130;28;20048;-79
2023/01/01 14:20:04;;;;;;;5.00;4.20;;;5.10;99.90;;;;;;5092220;28;20138;-81
2023/01/01 14:23:07;;;;;;;6.00;4.80;;;5.10;99.90;;;;;;5092281;28;20081;-82
2023/01/01 14:26:10;;;;;;;5.20;4.15;;;5.10;99.90;;;;;;5083929;28;20046;-80
2023/01/01 14:29:13;;;;;;;4.78;3.75;;;5.10;99.90;;;;;;5083313;28;20032;-81
2023/01/01 14:32:16;;;;;;;6.63;3.97;;;5.10;99.90;;;;;;5092400;28;20031;-82
2023/01/01 14:35:19;;;;;;;6.57;4.60;;;5.20;99.90;;;;;;5092302;28;20032;-82
2023/01/01 14:38:23;;;;;;;6.65;4.28;;;5.10;99.90;;;;;;5092472;28;20031;-80
2023/01/01 14:41:27;;;;;;;5.15;3.80;;;5.10;99.90;;;;;;5082885;28;20392;-79
2023/01/01 14:44:13;;;;;;;6.15;3.83;;;5.20;99.90;;;;;;5090574;28;20465;-80
2023/01/01 14:47:17;;;;;;;6.15;4.30;;;5.30;99.90;;;;;;5091921;28;20032;-80
2023/01/01 14:50:01;;;;;;;4.40;3.67;;;;;;;;;;5081733;28;20040;-79
2023/01/01 14:52:47;;;;;;;5.20;3.95;;;5.40;99.90;;;;;;5091890;28;20035;-81
2023/01/01 14:55:18;;;;;;;5.68;4.32;;;5.30;99.90;;;;;;5092197;28;20024;-79
2023/01/01 14:57:49;;;;;;;5.65;4.05;;;5.30;99.90;;;;;;5077863;28;20431;-81
2023/01/01 15:00:34;;;;;;;5.38;4.88;;;;;;;;;;5090695;28;20024;-82